sensor_id;sensor_type;location;lat;lon;timestamp;temperature;humidity
76567;DHT22;65428;53.194;6.132;2022-12-29T00:02:09;10.50;94.90
76567;DHT22;65428;53.194;6.132;2022-12-29T00:04:34;10.50;95.00
76567;DHT22;65428;53.194;6.132;2022-12-29T00:07:00;10.50;95.00
76567;DHT22;65428;53.194;6.132;2022-12-29T00:09:26;10.50;95.10
76567;DHT22;65428;53.194;6.132;2022-12-29T00:11:53;10.50;95.10
76567;DHT22;65428;53.194;6.132;2022-12-29T00:14:19;10.60;95.00
76567;DHT22;65428;53.194;6.132;2022-12-29T00:17:03;10.60;95.00
76567;DHT22;65428;53.194;6.132;2022-12-29T00:19:29;10.60;94.80
76567;DHT22;65428;53.194;6.132;2022-12-29T00:22:14;10.60;94.70
76567;DHT22;65428;53.194;6.132;2022-12-29T00:25:09;10.80;94.70
76567;DHT22;65428;53.194;6.132;2022-12-29T00:27:53;10.70;94.60
76567;DHT22;65428;53.194;6.132;2022-12-29T00:30:37;10.80;94.40
76567;DHT22;65428;53.194;6.132;2022-12-29T00:33:25;10.80;94.40
76567;DHT22;65428;53.194;6.132;2022-12-29T00:36:19;10.80;94.20
76567;DHT22;65428;53.194;6.132;2022-12-29T00:38:52;10.80;94.10
76567;DHT22;65428;53.194;6.132;2022-12-29T00:41:38;10.80;94.10
76567;DHT22;65428;53.194;6.132;2022-12-29T00:44:22;10.90;94.00
76567;DHT22;65428;53.194;6.132;2022-12-29T00:46:47;10.90;93.80
76567;DHT22;65428;53.194;6.132;2022-12-29T00:49:14;10.90;93.60
76567;DHT22;65428;53.194;6.132;2022-12-29T00:54:25;10.90;93.50
76567;DHT22;65428;53.194;6.132;2022-12-29T00:56:52;10.90;93.40
76567;DHT22;65428;53.194;6.132;2022-12-29T00:59:18;10.90;93.40
76567;DHT22;65428;53.194;6.132;2022-12-29T01:01:48;10.90;93.40
76567;DHT22;65428;53.194;6.132;2022-12-29T01:04:14;10.90;93.30
76567;DHT22;65428;53.194;6.132;2022-12-29T01:06:40;11.00;93.30
76567;DHT22;65428;53.194;6.132;2022-12-29T01:09:07;11.00;93.30
76567;DHT22;65428;53.194;6.132;2022-12-29T01:11:51;11.00;93.30
76567;DHT22;65428;53.194;6.132;2022-12-29T01:14:18;11.20;93.20
76567;DHT22;65428;53.194;6.132;2022-12-29T01:16:45;11.00;93.10
76567;DHT22;65428;53.194;6.132;2022-12-29T01:19:11;11.00;93.10
76567;DHT22;65428;53.194;6.132;2022-12-29T01:21:36;11.00;93.10
76567;DHT22;65428;53.194;6.132;2022-12-29T01:24:03;11.00;92.90
76567;DHT22;65428;53.194;6.132;2022-12-29T01:26:28;11.10;93.00
76567;DHT22;65428;53.194;6.132;2022-12-29T01:28:54;11.10;93.00
76567;DHT22;65428;53.194;6.132;2022-12-29T01:31:20;11.10;93.00
76567;DHT22;65428;53.194;6.132;2022-12-29T01:33:45;11.10;93.00
76567;DHT22;65428;53.194;6.132;2022-12-29T01:36:13;11.10;93.00
76567;DHT22;65428;53.194;6.132;2022-12-29T01:38:40;11.10;93.00
76567;DHT22;65428;53.194;6.132;2022-12-29T01:41:07;11.10;93.20
76567;DHT22;65428;53.194;6.132;2022-12-29T01:46:36;11.00;93.40
76567;DHT22;65428;53.194;6.132;2022-12-29T01:49:16;11.00;93.50
76567;DHT22;65428;53.194;6.132;2022-12-29T01:51:50;11.00;93.50
76567;DHT22;65428;53.194;6.132;2022-12-29T01:54:29;11.00;93.70
76567;DHT22;65428;53.194;6.132;2022-12-29T01:56:58;11.10;93.90
76567;DHT22;65428;53.194;6.132;2022-12-29T01:59:31;10.90;94.20
76567;DHT22;65428;53.194;6.132;2022-12-29T02:01:58;10.90;94.50
76567;DHT22;65428;53.194;6.132;2022-12-29T02:04:26;10.80;94.70
76567;DHT22;65428;53.194;6.132;2022-12-29T02:07:01;10.70;94.90
76567;DHT22;65428;53.194;6.132;2022-12-29T02:09:28;10.70;95.00
76567;DHT22;65428;53.194;6.132;2022-12-29T02:11:54;10.70;95.10
76567;DHT22;65428;53.194;6.132;2022-12-29T02:14:20;10.60;95.10
76567;DHT22;65428;53.194;6.132;2022-12-29T02:22:30;10.60;95.70
76567;DHT22;65428;53.194;6.132;2022-12-29T02:25:41;10.50;95.80
76567;DHT22;65428;53.194;6.132;2022-12-29T02:36:11;10.40;96.30
76567;DHT22;65428;53.194;6.132;2022-12-29T02:41:34;10.30;96.20
76567;DHT22;65428;53.194;6.132;2022-12-29T02:47:00;10.30;96.40
76567;DHT22;65428;53.194;6.132;2022-12-29T02:49:58;10.30;96.60
76567;DHT22;65428;53.194;6.132;2022-12-29T02:52:35;10.30;96.70
76567;DHT22;65428;53.194;6.132;2022-12-29T02:55:03;10.30;96.80
76567;DHT22;65428;53.194;6.132;2022-12-29T02:57:34;10.10;96.80
76567;DHT22;65428;53.194;6.132;2022-12-29T03:00:07;10.10;96.80
76567;DHT22;65428;53.194;6.132;2022-12-29T03:05:41;10.00;96.90
76567;DHT22;65428;53.194;6.132;2022-12-29T03:08:23;9.90;96.90
76567;DHT22;65428;53.194;6.132;2022-12-29T03:11:02;9.90;96.90
76567;DHT22;65428;53.194;6.132;2022-12-29T03:13:34;10.00;96.90
76567;DHT22;65428;53.194;6.132;2022-12-29T03:16:30;10.00;96.90
76567;DHT22;65428;53.194;6.132;2022-12-29T03:19:02;9.90;96.80
76567;DHT22;65428;53.194;6.132;2022-12-29T03:21:39;9.90;96.60
76567;DHT22;65428;53.194;6.132;2022-12-29T03:24:29;9.80;96.40
76567;DHT22;65428;53.194;6.132;2022-12-29T03:26:58;9.70;96.30
76567;DHT22;65428;53.194;6.132;2022-12-29T03:29:27;9.70;96.10
76567;DHT22;65428;53.194;6.132;2022-12-29T03:31:55;9.80;96.10
76567;DHT22;65428;53.194;6.132;2022-12-29T03:34:23;9.60;96.10
76567;DHT22;65428;53.194;6.132;2022-12-29T03:36:53;9.70;96.00
76567;DHT22;65428;53.194;6.132;2022-12-29T03:39:22;9.60;95.90
76567;DHT22;65428;53.194;6.132;2022-12-29T03:41:52;9.50;95.80
76567;DHT22;65428;53.194;6.132;2022-12-29T03:44:21;9.50;95.80
76567;DHT22;65428;53.194;6.132;2022-12-29T03:46:46;9.60;95.70
76567;DHT22;65428;53.194;6.132;2022-12-29T03:49:12;9.40;95.50
76567;DHT22;65428;53.194;6.132;2022-12-29T03:51:38;9.40;95.50
76567;DHT22;65428;53.194;6.132;2022-12-29T03:54:03;9.40;95.40
76567;DHT22;65428;53.194;6.132;2022-12-29T03:56:29;9.40;95.40
76567;DHT22;65428;53.194;6.132;2022-12-29T03:58:55;9.50;95.40
76567;DHT22;65428;53.194;6.132;2022-12-29T04:01:20;9.30;95.40
76567;DHT22;65428;53.194;6.132;2022-12-29T04:03:46;9.30;95.30
76567;DHT22;65428;53.194;6.132;2022-12-29T04:06:12;9.30;95.30
76567;DHT22;65428;53.194;6.132;2022-12-29T04:08:37;9.50;95.20
76567;DHT22;65428;53.194;6.132;2022-12-29T04:11:03;9.30;95.10
76567;DHT22;65428;53.194;6.132;2022-12-29T04:13:30;9.30;95.00
76567;DHT22;65428;53.194;6.132;2022-12-29T04:15:55;9.30;95.00
76567;DHT22;65428;53.194;6.132;2022-12-29T04:18:21;9.30;94.90
76567;DHT22;65428;53.194;6.132;2022-12-29T04:20:47;9.40;94.70
76567;DHT22;65428;53.194;6.132;2022-12-29T04:23:30;9.30;94.60
76567;DHT22;65428;53.194;6.132;2022-12-29T04:25:56;9.30;94.40
76567;DHT22;65428;53.194;6.132;2022-12-29T04:28:22;9.40;94.30
76567;DHT22;65428;53.194;6.132;2022-12-29T04:30:48;9.30;94.10
76567;DHT22;65428;53.194;6.132;2022-12-29T04:33:14;9.30;94.00
76567;DHT22;65428;53.194;6.132;2022-12-29T04:35:40;9.30;93.70
76567;DHT22;65428;53.194;6.132;2022-12-29T04:38:05;9.30;93.50
76567;DHT22;65428;53.194;6.132;2022-12-29T04:40:31;9.30;93.30
76567;DHT22;65428;53.194;6.132;2022-12-29T04:42:56;9.30;93.20
76567;DHT22;65428;53.194;6.132;2022-12-29T04:45:22;9.30;93.20
76567;DHT22;65428;53.194;6.132;2022-12-29T04:47:48;9.30;93.00
76567;DHT22;65428;53.194;6.132;2022-12-29T04:50:13;9.30;93.00
76567;DHT22;65428;53.194;6.132;2022-12-29T04:52:39;9.20;92.90
76567;DHT22;65428;53.194;6.132;2022-12-29T04:55:06;9.20;92.80
76567;DHT22;65428;53.194;6.132;2022-12-29T04:57:32;9.20;92.70
76567;DHT22;65428;53.194;6.132;2022-12-29T04:59:57;9.20;92.80
76567;DHT22;65428;53.194;6.132;2022-12-29T05:02:23;9.20;92.90
76567;DHT22;65428;53.194;6.132;2022-12-29T05:04:49;9.20;93.10
76567;DHT22;65428;53.194;6.132;2022-12-29T05:07:15;9.10;93.00
76567;DHT22;65428;53.194;6.132;2022-12-29T05:09:41;9.10;93.10
76567;DHT22;65428;53.194;6.132;2022-12-29T05:12:07;9.20;93.10
76567;DHT22;65428;53.194;6.132;2022-12-29T05:14:32;9.10;93.20
76567;DHT22;65428;53.194;6.132;2022-12-29T05:16:58;9.10;93.20
76567;DHT22;65428;53.194;6.132;2022-12-29T05:19:24;9.10;93.20
76567;DHT22;65428;53.194;6.132;2022-12-29T05:21:49;9.10;93.20
76567;DHT22;65428;53.194;6.132;2022-12-29T05:24:15;9.00;93.20
76567;DHT22;65428;53.194;6.132;2022-12-29T05:26:41;9.00;93.30
76567;DHT22;65428;53.194;6.132;2022-12-29T05:29:07;9.00;93.40
76567;DHT22;65428;53.194;6.132;2022-12-29T05:31:33;8.90;93.40
76567;DHT22;65428;53.194;6.132;2022-12-29T05:34:01;8.90;93.40
76567;DHT22;65428;53.194;6.132;2022-12-29T05:36:26;9.00;93.30
76567;DHT22;65428;53.194;6.132;2022-12-29T05:38:52;9.00;93.50
76567;DHT22;65428;53.194;6.132;2022-12-29T05:41:18;9.00;93.30
76567;DHT22;65428;53.194;6.132;2022-12-29T05:43:44;9.10;93.30
76567;DHT22;65428;53.194;6.132;2022-12-29T05:46:09;9.20;93.20
76567;DHT22;65428;53.194;6.132;2022-12-29T05:48:35;9.20;93.10
76567;DHT22;65428;53.194;6.132;2022-12-29T05:51:01;9.20;93.00
76567;DHT22;65428;53.194;6.132;2022-12-29T05:53:26;9.20;93.00
76567;DHT22;65428;53.194;6.132;2022-12-29T05:55:52;9.20;92.90
76567;DHT22;65428;53.194;6.132;2022-12-29T05:58:18;9.30;92.80
76567;DHT22;65428;53.194;6.132;2022-12-29T06:00:44;9.40;92.70
76567;DHT22;65428;53.194;6.132;2022-12-29T06:03:10;9.40;92.40
76567;DHT22;65428;53.194;6.132;2022-12-29T06:05:36;9.50;92.20
76567;DHT22;65428;53.194;6.132;2022-12-29T06:08:02;9.50;92.00
76567;DHT22;65428;53.194;6.132;2022-12-29T06:10:28;9.50;91.80
76567;DHT22;65428;53.194;6.132;2022-12-29T06:12:54;9.50;91.60
76567;DHT22;65428;53.194;6.132;2022-12-29T06:15:19;9.40;91.40
76567;DHT22;65428;53.194;6.132;2022-12-29T06:17:45;9.40;91.40
76567;DHT22;65428;53.194;6.132;2022-12-29T06:20:11;9.50;91.30
76567;DHT22;65428;53.194;6.132;2022-12-29T06:22:37;9.40;91.20
76567;DHT22;65428;53.194;6.132;2022-12-29T06:25:03;9.40;91.10
76567;DHT22;65428;53.194;6.132;2022-12-29T06:27:29;9.40;90.90
76567;DHT22;65428;53.194;6.132;2022-12-29T06:29:55;9.40;91.00
76567;DHT22;65428;53.194;6.132;2022-12-29T06:32:20;9.40;90.90
76567;DHT22;65428;53.194;6.132;2022-12-29T06:34:46;9.40;91.00
76567;DHT22;65428;53.194;6.132;2022-12-29T06:37:12;9.40;91.10
76567;DHT22;65428;53.194;6.132;2022-12-29T06:39:38;9.30;91.10
76567;DHT22;65428;53.194;6.132;2022-12-29T06:42:04;9.30;91.20
76567;DHT22;65428;53.194;6.132;2022-12-29T06:44:29;9.20;91.20
76567;DHT22;65428;53.194;6.132;2022-12-29T06:46:55;9.20;91.20
76567;DHT22;65428;53.194;6.132;2022-12-29T06:49:21;9.20;91.20
76567;DHT22;65428;53.194;6.132;2022-12-29T06:51:46;9.40;91.20
76567;DHT22;65428;53.194;6.132;2022-12-29T06:54:12;9.10;91.20
76567;DHT22;65428;53.194;6.132;2022-12-29T06:56:38;9.10;91.10
76567;DHT22;65428;53.194;6.132;2022-12-29T06:59:03;9.20;91.00
76567;DHT22;65428;53.194;6.132;2022-12-29T07:01:30;9.20;91.00
76567;DHT22;65428;53.194;6.132;2022-12-29T07:03:55;9.40;90.90
76567;DHT22;65428;53.194;6.132;2022-12-29T07:06:21;9.20;90.90
76567;DHT22;65428;53.194;6.132;2022-12-29T07:08:47;9.20;90.80
76567;DHT22;65428;53.194;6.132;2022-12-29T07:11:12;9.20;90.90
76567;DHT22;65428;53.194;6.132;2022-12-29T07:13:38;9.20;90.70
76567;DHT22;65428;53.194;6.132;2022-12-29T07:16:07;9.20;90.80
76567;DHT22;65428;53.194;6.132;2022-12-29T07:18:33;9.10;91.00
76567;DHT22;65428;53.194;6.132;2022-12-29T07:20:59;9.10;90.90
76567;DHT22;65428;53.194;6.132;2022-12-29T07:23:25;9.20;91.00
76567;DHT22;65428;53.194;6.132;2022-12-29T07:26:08;9.20;91.00
76567;DHT22;65428;53.194;6.132;2022-12-29T07:28:35;9.30;90.90
76567;DHT22;65428;53.194;6.132;2022-12-29T07:31:01;9.30;90.90
76567;DHT22;65428;53.194;6.132;2022-12-29T07:33:30;9.40;90.90
76567;DHT22;65428;53.194;6.132;2022-12-29T07:35:58;9.40;90.80
76567;DHT22;65428;53.194;6.132;2022-12-29T07:38:23;9.40;90.70
76567;DHT22;65428;53.194;6.132;2022-12-29T07:40:49;9.40;90.60
76567;DHT22;65428;53.194;6.132;2022-12-29T07:43:15;9.40;90.60
76567;DHT22;65428;53.194;6.132;2022-12-29T07:45:40;9.60;90.50
76567;DHT22;65428;53.194;6.132;2022-12-29T07:48:06;9.50;90.70
76567;DHT22;65428;53.194;6.132;2022-12-29T07:50:35;9.50;90.70
76567;DHT22;65428;53.194;6.132;2022-12-29T07:53:01;9.50;90.80
76567;DHT22;65428;53.194;6.132;2022-12-29T07:55:27;9.50;90.70
76567;DHT22;65428;53.194;6.132;2022-12-29T07:57:53;9.50;90.80
76567;DHT22;65428;53.194;6.132;2022-12-29T08:00:20;9.60;90.90
76567;DHT22;65428;53.194;6.132;2022-12-29T08:02:45;9.60;90.80
76567;DHT22;65428;53.194;6.132;2022-12-29T08:05:11;9.60;90.70
76567;DHT22;65428;53.194;6.132;2022-12-29T08:07:37;9.60;90.50
76567;DHT22;65428;53.194;6.132;2022-12-29T08:10:03;9.60;90.60
76567;DHT22;65428;53.194;6.132;2022-12-29T08:12:29;9.60;90.30
76567;DHT22;65428;53.194;6.132;2022-12-29T08:14:54;9.60;90.20
76567;DHT22;65428;53.194;6.132;2022-12-29T08:17:20;9.60;90.00
76567;DHT22;65428;53.194;6.132;2022-12-29T08:19:45;9.60;89.20
76567;DHT22;65428;53.194;6.132;2022-12-29T08:22:12;9.70;89.40
76567;DHT22;65428;53.194;6.132;2022-12-29T08:24:38;10.00;89.40
76567;DHT22;65428;53.194;6.132;2022-12-29T08:27:03;9.70;88.90
76567;DHT22;65428;53.194;6.132;2022-12-29T08:29:29;9.70;89.10
76567;DHT22;65428;53.194;6.132;2022-12-29T08:31:54;9.60;89.70
76567;DHT22;65428;53.194;6.132;2022-12-29T08:34:20;9.60;89.90
76567;DHT22;65428;53.194;6.132;2022-12-29T08:36:46;9.80;89.60
76567;DHT22;65428;53.194;6.132;2022-12-29T08:39:11;9.60;89.40
76567;DHT22;65428;53.194;6.132;2022-12-29T08:41:37;9.60;89.80
76567;DHT22;65428;53.194;6.132;2022-12-29T08:44:02;9.60;90.00
76567;DHT22;65428;53.194;6.132;2022-12-29T08:46:28;9.60;90.10
76567;DHT22;65428;53.194;6.132;2022-12-29T08:48:54;9.60;90.30
76567;DHT22;65428;53.194;6.132;2022-12-29T08:51:19;9.60;90.10
76567;DHT22;65428;53.194;6.132;2022-12-29T08:53:45;9.60;90.00
76567;DHT22;65428;53.194;6.132;2022-12-29T08:56:11;9.60;90.20
76567;DHT22;65428;53.194;6.132;2022-12-29T08:58:36;9.60;90.20
76567;DHT22;65428;53.194;6.132;2022-12-29T09:01:03;9.60;90.20
76567;DHT22;65428;53.194;6.132;2022-12-29T09:03:29;9.60;90.10
76567;DHT22;65428;53.194;6.132;2022-12-29T09:05:55;9.60;90.30
76567;DHT22;65428;53.194;6.132;2022-12-29T09:08:22;9.60;91.10
76567;DHT22;65428;53.194;6.132;2022-12-29T09:10:48;9.60;91.40
76567;DHT22;65428;53.194;6.132;2022-12-29T09:13:14;9.60;91.20
76567;DHT22;65428;53.194;6.132;2022-12-29T09:15:41;9.50;91.10
76567;DHT22;65428;53.194;6.132;2022-12-29T09:18:08;9.50;91.30
76567;DHT22;65428;53.194;6.132;2022-12-29T09:20:34;9.80;91.30
76567;DHT22;65428;53.194;6.132;2022-12-29T09:23:00;9.60;91.00
76567;DHT22;65428;53.194;6.132;2022-12-29T09:25:26;9.60;90.90
76567;DHT22;65428;53.194;6.132;2022-12-29T09:27:52;9.50;91.00
76567;DHT22;65428;53.194;6.132;2022-12-29T09:30:20;9.60;91.30
76567;DHT22;65428;53.194;6.132;2022-12-29T09:32:46;9.60;91.50
76567;DHT22;65428;53.194;6.132;2022-12-29T09:35:13;9.50;91.60
76567;DHT22;65428;53.194;6.132;2022-12-29T09:37:38;9.50;91.70
76567;DHT22;65428;53.194;6.132;2022-12-29T09:40:05;9.50;91.90
76567;DHT22;65428;53.194;6.132;2022-12-29T09:45:20;9.40;91.60
76567;DHT22;65428;53.194;6.132;2022-12-29T09:47:47;9.50;91.90
76567;DHT22;65428;53.194;6.132;2022-12-29T09:50:23;9.50;92.10
76567;DHT22;65428;53.194;6.132;2022-12-29T09:52:55;9.50;92.10
76567;DHT22;65428;53.194;6.132;2022-12-29T09:55:27;9.40;92.60
76567;DHT22;65428;53.194;6.132;2022-12-29T09:58:02;9.40;93.00
76567;DHT22;65428;53.194;6.132;2022-12-29T10:01:12;9.20;93.30
76567;DHT22;65428;53.194;6.132;2022-12-29T10:03:54;9.20;93.90
76567;DHT22;65428;53.194;6.132;2022-12-29T10:14:08;9.00;94.60
76567;DHT22;65428;53.194;6.132;2022-12-29T10:16:56;9.00;94.60
76567;DHT22;65428;53.194;6.132;2022-12-29T10:19:29;9.00;94.70
76567;DHT22;65428;53.194;6.132;2022-12-29T10:22:09;9.00;94.80
76567;DHT22;65428;53.194;6.132;2022-12-29T10:24:38;9.00;94.70
76567;DHT22;65428;53.194;6.132;2022-12-29T10:27:09;9.00;94.60
76567;DHT22;65428;53.194;6.132;2022-12-29T10:29:40;9.00;94.60
76567;DHT22;65428;53.194;6.132;2022-12-29T10:37:45;9.10;94.20
76567;DHT22;65428;53.194;6.132;2022-12-29T10:42:59;9.20;93.90
76567;DHT22;65428;53.194;6.132;2022-12-29T10:45:29;9.20;94.20
76567;DHT22;65428;53.194;6.132;2022-12-29T10:48:01;9.20;94.20
76567;DHT22;65428;53.194;6.132;2022-12-29T10:50:28;9.20;94.00
76567;DHT22;65428;53.194;6.132;2022-12-29T10:52:58;9.20;93.90
76567;DHT22;65428;53.194;6.132;2022-12-29T10:55:28;9.20;93.90
76567;DHT22;65428;53.194;6.132;2022-12-29T10:57:56;9.20;94.00
76567;DHT22;65428;53.194;6.132;2022-12-29T11:00:24;9.20;93.90
76567;DHT22;65428;53.194;6.132;2022-12-29T11:03:14;9.30;94.00
76567;DHT22;65428;53.194;6.132;2022-12-29T11:05:55;9.30;93.80
76567;DHT22;65428;53.194;6.132;2022-12-29T11:08:26;9.30;93.90
76567;DHT22;65428;53.194;6.132;2022-12-29T11:11:02;9.30;93.80
76567;DHT22;65428;53.194;6.132;2022-12-29T11:13:33;9.30;93.70
76567;DHT22;65428;53.194;6.132;2022-12-29T11:16:00;9.40;93.90
76567;DHT22;65428;53.194;6.132;2022-12-29T11:18:32;9.40;93.90
76567;DHT22;65428;53.194;6.132;2022-12-29T11:21:00;9.40;94.00
76567;DHT22;65428;53.194;6.132;2022-12-29T11:23:31;9.60;93.60
76567;DHT22;65428;53.194;6.132;2022-12-29T11:31:43;9.70;92.40
76567;DHT22;65428;53.194;6.132;2022-12-29T11:34:15;9.80;92.40
76567;DHT22;65428;53.194;6.132;2022-12-29T11:36:41;9.80;92.20
76567;DHT22;65428;53.194;6.132;2022-12-29T11:39:41;9.90;91.70
76567;DHT22;65428;53.194;6.132;2022-12-29T11:42:11;9.90;91.30
76567;DHT22;65428;53.194;6.132;2022-12-29T11:44:43;9.90;91.50
76567;DHT22;65428;53.194;6.132;2022-12-29T11:47:19;9.90;91.20
76567;DHT22;65428;53.194;6.132;2022-12-29T11:49:50;9.90;90.70
76567;DHT22;65428;53.194;6.132;2022-12-29T11:52:22;9.90;90.90
76567;DHT22;65428;53.194;6.132;2022-12-29T11:54:48;9.90;90.90
76567;DHT22;65428;53.194;6.132;2022-12-29T11:57:16;10.00;91.00
76567;DHT22;65428;53.194;6.132;2022-12-29T11:59:48;10.00;91.00
76567;DHT22;65428;53.194;6.132;2022-12-29T12:02:28;10.00;90.70
76567;DHT22;65428;53.194;6.132;2022-12-29T12:05:19;10.10;91.00
76567;DHT22;65428;53.194;6.132;2022-12-29T12:08:09;10.10;90.60
76567;DHT22;65428;53.194;6.132;2022-12-29T12:10:39;10.20;90.90
76567;DHT22;65428;53.194;6.132;2022-12-29T12:16:05;10.60;89.00
76567;DHT22;65428;53.194;6.132;2022-12-29T12:18:39;10.60;87.90
76567;DHT22;65428;53.194;6.132;2022-12-29T12:21:15;10.50;87.00
76567;DHT22;65428;53.194;6.132;2022-12-29T12:26:36;10.30;87.60
76567;DHT22;65428;53.194;6.132;2022-12-29T12:29:21;10.20;87.20
76567;DHT22;65428;53.194;6.132;2022-12-29T12:31:57;10.30;86.90
76567;DHT22;65428;53.194;6.132;2022-12-29T12:34:30;10.50;86.70
76567;DHT22;65428;53.194;6.132;2022-12-29T12:39:56;10.30;87.40
76567;DHT22;65428;53.194;6.132;2022-12-29T12:48:45;10.40;86.90
76567;DHT22;65428;53.194;6.132;2022-12-29T13:01:46;10.00;88.10
76567;DHT22;65428;53.194;6.132;2022-12-29T13:04:39;9.90;88.30
76567;DHT22;65428;53.194;6.132;2022-12-29T13:10:12;9.90;89.10
76567;DHT22;65428;53.194;6.132;2022-12-29T13:19:09;10.50;87.20
76567;DHT22;65428;53.194;6.132;2022-12-29T13:27:13;10.50;85.10
76567;DHT22;65428;53.194;6.132;2022-12-29T13:32:57;10.20;86.20
76567;DHT22;65428;53.194;6.132;2022-12-29T13:38:29;9.90;88.00
76567;DHT22;65428;53.194;6.132;2022-12-29T13:41:01;9.80;89.30
76567;DHT22;65428;53.194;6.132;2022-12-29T13:43:29;9.70;89.00
76567;DHT22;65428;53.194;6.132;2022-12-29T13:46:12;10.10;90.00
76567;DHT22;65428;53.194;6.132;2022-12-29T13:48:53;9.80;88.80
76567;DHT22;65428;53.194;6.132;2022-12-29T13:51:21;9.80;88.20
76567;DHT22;65428;53.194;6.132;2022-12-29T13:56:33;10.00;87.80
76567;DHT22;65428;53.194;6.132;2022-12-29T14:02:00;10.00;88.00
76567;DHT22;65428;53.194;6.132;2022-12-29T14:04:29;9.90;87.60
76567;DHT22;65428;53.194;6.132;2022-12-29T14:07:01;9.80;88.00
76567;DHT22;65428;53.194;6.132;2022-12-29T14:09:49;9.70;87.40
76567;DHT22;65428;53.194;6.132;2022-12-29T14:12:45;9.60;87.90
76567;DHT22;65428;53.194;6.132;2022-12-29T14:15:19;9.50;88.20
76567;DHT22;65428;53.194;6.132;2022-12-29T14:18:02;9.60;88.70
76567;DHT22;65428;53.194;6.132;2022-12-29T14:20:29;9.60;88.70
76567;DHT22;65428;53.194;6.132;2022-12-29T14:23:16;9.40;89.30
76567;DHT22;65428;53.194;6.132;2022-12-29T14:28:40;9.30;89.60
76567;DHT22;65428;53.194;6.132;2022-12-29T14:36:52;9.20;90.00
76567;DHT22;65428;53.194;6.132;2022-12-29T14:44:55;9.00;90.50
76567;DHT22;65428;53.194;6.132;2022-12-29T14:47:37;9.00;90.50
76567;DHT22;65428;53.194;6.132;2022-12-29T14:50:07;9.00;90.60
76567;DHT22;65428;53.194;6.132;2022-12-29T14:52:52;8.90;90.50
76567;DHT22;65428;53.194;6.132;2022-12-29T14:55:40;8.90;90.70
76567;DHT22;65428;53.194;6.132;2022-12-29T14:58:14;8.90;90.80
76567;DHT22;65428;53.194;6.132;2022-12-29T15:00:41;8.80;90.90
76567;DHT22;65428;53.194;6.132;2022-12-29T15:03:32;8.80;91.00
76567;DHT22;65428;53.194;6.132;2022-12-29T15:06:09;8.70;91.10
76567;DHT22;65428;53.194;6.132;2022-12-29T15:08:42;8.70;91.40
76567;DHT22;65428;53.194;6.132;2022-12-29T15:11:15;8.70;91.50
76567;DHT22;65428;53.194;6.132;2022-12-29T15:13:43;8.70;91.40
76567;DHT22;65428;53.194;6.132;2022-12-29T15:16:32;8.60;91.40
76567;DHT22;65428;53.194;6.132;2022-12-29T15:18:59;8.70;91.50
76567;DHT22;65428;53.194;6.132;2022-12-29T15:21:30;8.60;91.60
76567;DHT22;65428;53.194;6.132;2022-12-29T15:23:59;8.60;91.60
76567;DHT22;65428;53.194;6.132;2022-12-29T15:26:44;8.50;91.70
76567;DHT22;65428;53.194;6.132;2022-12-29T15:29:37;8.70;91.80
76567;DHT22;65428;53.194;6.132;2022-12-29T15:34:45;8.50;91.70
76567;DHT22;65428;53.194;6.132;2022-12-29T15:37:25;8.50;91.80
76567;DHT22;65428;53.194;6.132;2022-12-29T15:39:52;8.50;91.80
76567;DHT22;65428;53.194;6.132;2022-12-29T15:42:31;8.50;91.70
76567;DHT22;65428;53.194;6.132;2022-12-29T15:45:04;8.50;92.00
76567;DHT22;65428;53.194;6.132;2022-12-29T15:47:30;8.50;91.60
76567;DHT22;65428;53.194;6.132;2022-12-29T15:50:22;8.50;91.70
76567;DHT22;65428;53.194;6.132;2022-12-29T15:52:48;8.50;91.80
76567;DHT22;65428;53.194;6.132;2022-12-29T15:55:34;8.50;91.80
76567;DHT22;65428;53.194;6.132;2022-12-29T15:58:02;8.50;91.80
76567;DHT22;65428;53.194;6.132;2022-12-29T16:00:35;8.50;92.40
76567;DHT22;65428;53.194;6.132;2022-12-29T16:03:04;8.50;92.80
76567;DHT22;65428;53.194;6.132;2022-12-29T16:05:38;8.30;93.40
76567;DHT22;65428;53.194;6.132;2022-12-29T16:10:46;8.20;94.40
76567;DHT22;65428;53.194;6.132;2022-12-29T16:13:38;8.20;94.80
76567;DHT22;65428;53.194;6.132;2022-12-29T16:16:20;7.90;94.40
76567;DHT22;65428;53.194;6.132;2022-12-29T16:18:47;7.80;94.20
76567;DHT22;65428;53.194;6.132;2022-12-29T16:21:29;7.60;94.30
76567;DHT22;65428;53.194;6.132;2022-12-29T16:24:00;7.40;94.30
76567;DHT22;65428;53.194;6.132;2022-12-29T16:26:27;7.30;94.40
76567;DHT22;65428;53.194;6.132;2022-12-29T16:28:59;7.20;94.60
76567;DHT22;65428;53.194;6.132;2022-12-29T16:33:58;7.10;94.40
76567;DHT22;65428;53.194;6.132;2022-12-29T16:36:51;6.90;94.60
76567;DHT22;65428;53.194;6.132;2022-12-29T16:39:28;6.90;94.90
76567;DHT22;65428;53.194;6.132;2022-12-29T16:41:55;6.90;94.70
76567;DHT22;65428;53.194;6.132;2022-12-29T16:44:30;6.90;94.90
76567;DHT22;65428;53.194;6.132;2022-12-29T16:47:01;7.00;95.20
76567;DHT22;65428;53.194;6.132;2022-12-29T16:49:27;6.90;95.40
76567;DHT22;65428;53.194;6.132;2022-12-29T16:51:54;6.90;95.60
76567;DHT22;65428;53.194;6.132;2022-12-29T16:54:30;6.90;95.80
76567;DHT22;65428;53.194;6.132;2022-12-29T16:56:57;6.90;95.90
76567;DHT22;65428;53.194;6.132;2022-12-29T16:59:37;6.90;95.80
76567;DHT22;65428;53.194;6.132;2022-12-29T17:02:13;7.00;95.90
76567;DHT22;65428;53.194;6.132;2022-12-29T17:04:39;7.00;95.90
76567;DHT22;65428;53.194;6.132;2022-12-29T17:07:16;7.00;95.90
76567;DHT22;65428;53.194;6.132;2022-12-29T17:09:42;7.00;95.90
76567;DHT22;65428;53.194;6.132;2022-12-29T17:12:11;7.10;96.00
76567;DHT22;65428;53.194;6.132;2022-12-29T17:14:47;7.10;96.00
76567;DHT22;65428;53.194;6.132;2022-12-29T17:17:17;7.10;96.00
76567;DHT22;65428;53.194;6.132;2022-12-29T17:19:52;7.20;96.00
76567;DHT22;65428;53.194;6.132;2022-12-29T17:22:22;7.20;96.00
76567;DHT22;65428;53.194;6.132;2022-12-29T17:24:50;7.30;96.00
76567;DHT22;65428;53.194;6.132;2022-12-29T17:27:28;7.30;95.90
76567;DHT22;65428;53.194;6.132;2022-12-29T17:30:02;7.30;95.90
76567;DHT22;65428;53.194;6.132;2022-12-29T17:32:28;7.40;95.90
76567;DHT22;65428;53.194;6.132;2022-12-29T17:34:54;7.30;95.80
76567;DHT22;65428;53.194;6.132;2022-12-29T17:39:48;7.40;95.90
76567;DHT22;65428;53.194;6.132;2022-12-29T17:42:14;7.40;95.90
76567;DHT22;65428;53.194;6.132;2022-12-29T17:44:41;7.60;95.90
76567;DHT22;65428;53.194;6.132;2022-12-29T17:47:09;7.40;95.80
76567;DHT22;65428;53.194;6.132;2022-12-29T17:49:35;7.40;95.80
76567;DHT22;65428;53.194;6.132;2022-12-29T17:52:01;7.40;95.70
76567;DHT22;65428;53.194;6.132;2022-12-29T17:54:26;7.60;95.60
76567;DHT22;65428;53.194;6.132;2022-12-29T17:56:52;7.50;95.50
76567;DHT22;65428;53.194;6.132;2022-12-29T17:59:18;7.50;95.70
76567;DHT22;65428;53.194;6.132;2022-12-29T18:01:46;7.40;95.60
76567;DHT22;65428;53.194;6.132;2022-12-29T18:04:16;7.50;95.50
76567;DHT22;65428;53.194;6.132;2022-12-29T18:06:42;7.50;95.50
76567;DHT22;65428;53.194;6.132;2022-12-29T18:09:08;7.40;95.30
76567;DHT22;65428;53.194;6.132;2022-12-29T18:11:37;7.50;95.70
76567;DHT22;65428;53.194;6.132;2022-12-29T18:14:04;7.40;95.30